sensor_id;sensor_type;location;lat;lon;timestamp;P1;durP1;ratioP1;P2;durP2;ratioP2
47481;SDS011;33219;47.410;9.730;2022-12-13T00:01:23;17.30;;;9.57;;
47481;SDS011;33219;47.410;9.730;2022-12-13T00:03:52;18.20;;;8.77;;
47481;SDS011;33219;47.410;9.730;2022-12-13T00:06:21;18.33;;;8.80;;
47481;SDS011;33219;47.410;9.730;2022-12-13T00:08:49;19.50;;;8.77;;
47481;SDS011;33219;47.410;9.730;2022-12-13T00:11:17;17.93;;;8.20;;
47481;SDS011;33219;47.410;9.730;2022-12-13T00:13:45;15.83;;;7.70;;
47481;SDS011;33219;47.410;9.730;2022-12-13T00:16:13;19.03;;;8.10;;
47481;SDS011;33219;47.410;9.730;2022-12-13T00:18:45;14.97;;;7.67;;
47481;SDS011;33219;47.410;9.730;2022-12-13T00:21:14;14.07;;;7.43;;
47481;SDS011;33219;47.410;9.730;2022-12-13T00:23:43;15.93;;;7.73;;
47481;SDS011;33219;47.410;9.730;2022-12-13T00:26:13;11.90;;;5.90;;
47481;SDS011;33219;47.410;9.730;2022-12-13T00:28:41;15.30;;;6.83;;
47481;SDS011;33219;47.410;9.730;2022-12-13T00:31:09;15.57;;;7.20;;
47481;SDS011;33219;47.410;9.730;2022-12-13T00:33:37;19.20;;;7.87;;
47481;SDS011;33219;47.410;9.730;2022-12-13T00:36:05;14.57;;;7.40;;
47481;SDS011;33219;47.410;9.730;2022-12-13T00:38:34;16.10;;;7.23;;
47481;SDS011;33219;47.410;9.730;2022-12-13T00:41:08;14.37;;;7.70;;
47481;SDS011;33219;47.410;9.730;2022-12-13T00:43:40;11.07;;;6.03;;
47481;SDS011;33219;47.410;9.730;2022-12-13T00:46:12;13.23;;;6.37;;
47481;SDS011;33219;47.410;9.730;2022-12-13T00:48:41;11.77;;;6.40;;
47481;SDS011;33219;47.410;9.730;2022-12-13T00:51:10;14.40;;;6.83;;
47481;SDS011;33219;47.410;9.730;2022-12-13T00:53:38;13.23;;;7.73;;
47481;SDS011;33219;47.410;9.730;2022-12-13T00:56:15;16.57;;;7.93;;
47481;SDS011;33219;47.410;9.730;2022-12-13T00:58:39;18.77;;;9.23;;
47481;SDS011;33219;47.410;9.730;2022-12-13T01:01:08;21.20;;;9.30;;
47481;SDS011;33219;47.410;9.730;2022-12-13T01:03:38;19.40;;;9.67;;
47481;SDS011;33219;47.410;9.730;2022-12-13T01:06:12;18.97;;;9.13;;
47481;SDS011;33219;47.410;9.730;2022-12-13T01:08:37;18.67;;;9.53;;
47481;SDS011;33219;47.410;9.730;2022-12-13T01:11:06;24.27;;;12.20;;
47481;SDS011;33219;47.410;9.730;2022-12-13T01:13:34;17.47;;;9.33;;
47481;SDS011;33219;47.410;9.730;2022-12-13T01:16:03;16.43;;;8.10;;
47481;SDS011;33219;47.410;9.730;2022-12-13T01:18:33;16.97;;;8.13;;
47481;SDS011;33219;47.410;9.730;2022-12-13T01:21:02;27.47;;;12.20;;
47481;SDS011;33219;47.410;9.730;2022-12-13T01:23:32;24.73;;;11.33;;
47481;SDS011;33219;47.410;9.730;2022-12-13T01:26:01;26.47;;;12.10;;
47481;SDS011;33219;47.410;9.730;2022-12-13T01:28:32;27.40;;;12.68;;
47481;SDS011;33219;47.410;9.730;2022-12-13T01:31:01;32.40;;;13.00;;
47481;SDS011;33219;47.410;9.730;2022-12-13T01:33:30;35.47;;;16.00;;
47481;SDS011;33219;47.410;9.730;2022-12-13T01:36:05;28.17;;;13.63;;
47481;SDS011;33219;47.410;9.730;2022-12-13T01:38:29;28.13;;;13.27;;
47481;SDS011;33219;47.410;9.730;2022-12-13T01:40:57;31.30;;;13.60;;
47481;SDS011;33219;47.410;9.730;2022-12-13T01:43:28;21.00;;;10.37;;
47481;SDS011;33219;47.410;9.730;2022-12-13T01:45:57;23.20;;;10.93;;
47481;SDS011;33219;47.410;9.730;2022-12-13T01:48:26;24.00;;;11.43;;
47481;SDS011;33219;47.410;9.730;2022-12-13T01:50:56;45.47;;;16.40;;
47481;SDS011;33219;47.410;9.730;2022-12-13T01:53:27;41.23;;;15.37;;
47481;SDS011;33219;47.410;9.730;2022-12-13T01:55:59;45.37;;;16.53;;
47481;SDS011;33219;47.410;9.730;2022-12-13T01:58:27;47.07;;;17.27;;
47481;SDS011;33219;47.410;9.730;2022-12-13T02:00:56;41.63;;;16.43;;
47481;SDS011;33219;47.410;9.730;2022-12-13T02:03:25;39.90;;;15.13;;
47481;SDS011;33219;47.410;9.730;2022-12-13T02:06:17;39.80;;;14.87;;
47481;SDS011;33219;47.410;9.730;2022-12-13T02:08:41;30.63;;;12.37;;
47481;SDS011;33219;47.410;9.730;2022-12-13T02:11:12;25.67;;;10.17;;
47481;SDS011;33219;47.410;9.730;2022-12-13T02:13:42;34.50;;;12.90;;
47481;SDS011;33219;47.410;9.730;2022-12-13T02:19:20;32.57;;;12.70;;
47481;SDS011;33219;47.410;9.730;2022-12-13T02:30:44;29.40;;;11.40;;
47481;SDS011;33219;47.410;9.730;2022-12-13T02:33:21;25.80;;;11.37;;
47481;SDS011;33219;47.410;9.730;2022-12-13T02:35:50;29.87;;;11.23;;
47481;SDS011;33219;47.410;9.730;2022-12-13T02:41:21;13.20;;;6.95;;
47481;SDS011;33219;47.410;9.730;2022-12-13T02:46:30;21.47;;;10.00;;
47481;SDS011;33219;47.410;9.730;2022-12-13T02:48:59;23.83;;;10.57;;
47481;SDS011;33219;47.410;9.730;2022-12-13T02:51:29;18.10;;;8.87;;
47481;SDS011;33219;47.410;9.730;2022-12-13T02:53:58;26.87;;;10.63;;
47481;SDS011;33219;47.410;9.730;2022-12-13T02:56:25;22.37;;;10.00;;
47481;SDS011;33219;47.410;9.730;2022-12-13T02:58:53;26.90;;;10.60;;
47481;SDS011;33219;47.410;9.730;2022-12-13T03:09:46;24.35;;;10.20;;
47481;SDS011;33219;47.410;9.730;2022-12-13T03:12:22;14.25;;;7.47;;
47481;SDS011;33219;47.410;9.730;2022-12-13T03:15:20;26.60;;;10.60;;
47481;SDS011;33219;47.410;9.730;2022-12-13T03:18:35;21.23;;;10.37;;
47481;SDS011;33219;47.410;9.730;2022-12-13T03:20:49;25.70;;;10.50;;
47481;SDS011;33219;47.410;9.730;2022-12-13T03:23:14;25.80;;;11.57;;
47481;SDS011;33219;47.410;9.730;2022-12-13T03:25:45;24.27;;;11.43;;
47481;SDS011;33219;47.410;9.730;2022-12-13T03:28:15;23.63;;;11.17;;
47481;SDS011;33219;47.410;9.730;2022-12-13T03:30:43;24.17;;;11.07;;
47481;SDS011;33219;47.410;9.730;2022-12-13T03:33:10;25.57;;;11.73;;
47481;SDS011;33219;47.410;9.730;2022-12-13T03:35:39;23.90;;;10.67;;
47481;SDS011;33219;47.410;9.730;2022-12-13T03:38:08;22.20;;;11.00;;
47481;SDS011;33219;47.410;9.730;2022-12-13T03:40:37;55.87;;;22.33;;
47481;SDS011;33219;47.410;9.730;2022-12-13T03:43:05;29.50;;;14.00;;
47481;SDS011;33219;47.410;9.730;2022-12-13T03:45:33;26.43;;;12.07;;
47481;SDS011;33219;47.410;9.730;2022-12-13T03:48:00;21.83;;;10.83;;
47481;SDS011;33219;47.410;9.730;2022-12-13T03:50:28;27.50;;;12.50;;
47481;SDS011;33219;47.410;9.730;2022-12-13T03:53:00;23.87;;;12.57;;
47481;SDS011;33219;47.410;9.730;2022-12-13T03:55:25;27.30;;;11.67;;
47481;SDS011;33219;47.410;9.730;2022-12-13T03:57:53;21.87;;;10.97;;
47481;SDS011;33219;47.410;9.730;2022-12-13T04:00:21;27.33;;;11.77;;
47481;SDS011;33219;47.410;9.730;2022-12-13T04:02:49;23.87;;;11.77;;
47481;SDS011;33219;47.410;9.730;2022-12-13T04:05:17;23.17;;;11.07;;
47481;SDS011;33219;47.410;9.730;2022-12-13T04:07:44;26.13;;;11.53;;
47481;SDS011;33219;47.410;9.730;2022-12-13T04:10:12;24.60;;;10.80;;
47481;SDS011;33219;47.410;9.730;2022-12-13T04:12:40;20.20;;;10.97;;
47481;SDS011;33219;47.410;9.730;2022-12-13T04:15:25;19.77;;;9.97;;
47481;SDS011;33219;47.410;9.730;2022-12-13T04:17:53;26.70;;;11.13;;
47481;SDS011;33219;47.410;9.730;2022-12-13T04:20:20;24.63;;;11.63;;
47481;SDS011;33219;47.410;9.730;2022-12-13T04:22:48;23.87;;;12.47;;
47481;SDS011;33219;47.410;9.730;2022-12-13T04:25:15;22.37;;;10.90;;
47481;SDS011;33219;47.410;9.730;2022-12-13T04:27:44;21.03;;;10.50;;
47481;SDS011;33219;47.410;9.730;2022-12-13T04:30:12;24.03;;;11.17;;
47481;SDS011;33219;47.410;9.730;2022-12-13T04:32:39;24.53;;;12.67;;
47481;SDS011;33219;47.410;9.730;2022-12-13T04:35:07;28.73;;;12.27;;
47481;SDS011;33219;47.410;9.730;2022-12-13T04:37:35;26.13;;;12.90;;
47481;SDS011;33219;47.410;9.730;2022-12-13T04:40:02;25.77;;;12.43;;
47481;SDS011;33219;47.410;9.730;2022-12-13T04:42:30;23.53;;;11.40;;
47481;SDS011;33219;47.410;9.730;2022-12-13T04:44:58;22.63;;;9.97;;
47481;SDS011;33219;47.410;9.730;2022-12-13T04:47:25;25.10;;;11.53;;
47481;SDS011;33219;47.410;9.730;2022-12-13T04:49:53;24.40;;;10.83;;
47481;SDS011;33219;47.410;9.730;2022-12-13T04:52:20;21.17;;;9.40;;
47481;SDS011;33219;47.410;9.730;2022-12-13T04:54:48;26.77;;;11.57;;
47481;SDS011;33219;47.410;9.730;2022-12-13T04:57:16;25.33;;;11.97;;
47481;SDS011;33219;47.410;9.730;2022-12-13T04:59:43;23.70;;;13.27;;
47481;SDS011;33219;47.410;9.730;2022-12-13T05:02:11;21.17;;;11.33;;
47481;SDS011;33219;47.410;9.730;2022-12-13T05:04:39;25.53;;;12.87;;
47481;SDS011;33219;47.410;9.730;2022-12-13T05:07:07;27.00;;;12.87;;
47481;SDS011;33219;47.410;9.730;2022-12-13T05:09:34;27.43;;;13.70;;
47481;SDS011;33219;47.410;9.730;2022-12-13T05:12:02;30.77;;;14.03;;
47481;SDS011;33219;47.410;9.730;2022-12-13T05:14:30;28.53;;;14.33;;
47481;SDS011;33219;47.410;9.730;2022-12-13T05:17:03;25.63;;;12.10;;
47481;SDS011;33219;47.410;9.730;2022-12-13T05:19:27;25.47;;;12.40;;
47481;SDS011;33219;47.410;9.730;2022-12-13T05:21:55;24.30;;;11.70;;
47481;SDS011;33219;47.410;9.730;2022-12-13T05:24:22;27.97;;;12.47;;
47481;SDS011;33219;47.410;9.730;2022-12-13T05:26:50;21.73;;;11.60;;
47481;SDS011;33219;47.410;9.730;2022-12-13T05:29:17;23.27;;;12.23;;
47481;SDS011;33219;47.410;9.730;2022-12-13T05:31:45;25.13;;;13.67;;
47481;SDS011;33219;47.410;9.730;2022-12-13T05:34:12;28.77;;;14.17;;
47481;SDS011;33219;47.410;9.730;2022-12-13T05:36:40;26.30;;;13.60;;
47481;SDS011;33219;47.410;9.730;2022-12-13T05:39:08;28.03;;;14.10;;
47481;SDS011;33219;47.410;9.730;2022-12-13T05:41:35;26.00;;;13.10;;
47481;SDS011;33219;47.410;9.730;2022-12-13T05:44:03;32.63;;;14.17;;
47481;SDS011;33219;47.410;9.730;2022-12-13T05:46:31;27.17;;;14.57;;
47481;SDS011;33219;47.410;9.730;2022-12-13T05:48:58;31.27;;;14.70;;
47481;SDS011;33219;47.410;9.730;2022-12-13T05:51:26;26.57;;;14.07;;
47481;SDS011;33219;47.410;9.730;2022-12-13T05:53:53;25.27;;;13.97;;
47481;SDS011;33219;47.410;9.730;2022-12-13T05:56:21;27.13;;;15.30;;
47481;SDS011;33219;47.410;9.730;2022-12-13T05:58:48;28.30;;;15.07;;
47481;SDS011;33219;47.410;9.730;2022-12-13T06:01:16;27.23;;;14.97;;
47481;SDS011;33219;47.410;9.730;2022-12-13T06:03:44;23.80;;;13.63;;
47481;SDS011;33219;47.410;9.730;2022-12-13T06:06:11;25.60;;;13.30;;
47481;SDS011;33219;47.410;9.730;2022-12-13T06:08:41;27.43;;;12.70;;
47481;SDS011;33219;47.410;9.730;2022-12-13T06:11:08;25.40;;;13.57;;
47481;SDS011;33219;47.410;9.730;2022-12-13T06:13:36;22.20;;;12.70;;
47481;SDS011;33219;47.410;9.730;2022-12-13T06:16:04;26.57;;;12.33;;
47481;SDS011;33219;47.410;9.730;2022-12-13T06:18:32;24.00;;;12.60;;
47481;SDS011;33219;47.410;9.730;2022-12-13T06:21:02;21.10;;;10.43;;
47481;SDS011;33219;47.410;9.730;2022-12-13T06:23:31;20.07;;;11.70;;
47481;SDS011;33219;47.410;9.730;2022-12-13T06:26:03;19.03;;;10.03;;
47481;SDS011;33219;47.410;9.730;2022-12-13T06:28:35;18.07;;;8.63;;
47481;SDS011;33219;47.410;9.730;2022-12-13T06:31:03;19.67;;;10.28;;
47481;SDS011;33219;47.410;9.730;2022-12-13T06:33:32;24.53;;;11.37;;
47481;SDS011;33219;47.410;9.730;2022-12-13T06:36:02;27.50;;;13.67;;
47481;SDS011;33219;47.410;9.730;2022-12-13T06:38:31;26.73;;;14.17;;
47481;SDS011;33219;47.410;9.730;2022-12-13T06:41:09;25.00;;;12.90;;
47481;SDS011;33219;47.410;9.730;2022-12-13T06:43:46;32.10;;;14.13;;
47481;SDS011;33219;47.410;9.730;2022-12-13T06:46:43;35.20;;;17.07;;
47481;SDS011;33219;47.410;9.730;2022-12-13T06:49:34;28.60;;;16.50;;
47481;SDS011;33219;47.410;9.730;2022-12-13T06:52:09;33.20;;;16.60;;
47481;SDS011;33219;47.410;9.730;2022-12-13T06:54:43;32.40;;;16.90;;
47481;SDS011;33219;47.410;9.730;2022-12-13T07:00:11;30.57;;;17.50;;
47481;SDS011;33219;47.410;9.730;2022-12-13T07:02:40;26.33;;;15.43;;
47481;SDS011;33219;47.410;9.730;2022-12-13T07:05:16;29.53;;;15.80;;
47481;SDS011;33219;47.410;9.730;2022-12-13T07:08:00;29.17;;;16.13;;
47481;SDS011;33219;47.410;9.730;2022-12-13T07:10:45;26.33;;;13.63;;
47481;SDS011;33219;47.410;9.730;2022-12-13T07:13:22;24.40;;;13.58;;
47481;SDS011;33219;47.410;9.730;2022-12-13T07:18:41;23.80;;;12.23;;
47481;SDS011;33219;47.410;9.730;2022-12-13T07:21:11;25.17;;;13.57;;
47481;SDS011;33219;47.410;9.730;2022-12-13T07:24:00;22.85;;;12.78;;
47481;SDS011;33219;47.410;9.730;2022-12-13T07:26:33;29.10;;;14.93;;
47481;SDS011;33219;47.410;9.730;2022-12-13T07:32:02;37.80;;;18.47;;
47481;SDS011;33219;47.410;9.730;2022-12-13T07:34:34;33.05;;;17.87;;
47481;SDS011;33219;47.410;9.730;2022-12-13T07:37:07;30.20;;;16.70;;
47481;SDS011;33219;47.410;9.730;2022-12-13T07:39:43;30.57;;;16.20;;
47481;SDS011;33219;47.410;9.730;2022-12-13T07:42:14;32.90;;;16.87;;
47481;SDS011;33219;47.410;9.730;2022-12-13T07:44:46;35.03;;;16.43;;
47481;SDS011;33219;47.410;9.730;2022-12-13T07:47:15;29.33;;;15.20;;
47481;SDS011;33219;47.410;9.730;2022-12-13T07:49:49;29.57;;;14.10;;
47481;SDS011;33219;47.410;9.730;2022-12-13T07:52:23;26.70;;;15.07;;
47481;SDS011;33219;47.410;9.730;2022-12-13T07:54:53;30.80;;;14.97;;
47481;SDS011;33219;47.410;9.730;2022-12-13T07:57:25;28.40;;;14.10;;
47481;SDS011;33219;47.410;9.730;2022-12-13T08:00:00;24.23;;;13.00;;
47481;SDS011;33219;47.410;9.730;2022-12-13T08:02:34;24.70;;;13.80;;
47481;SDS011;33219;47.410;9.730;2022-12-13T08:05:07;24.50;;;12.90;;
47481;SDS011;33219;47.410;9.730;2022-12-13T08:07:39;25.47;;;14.10;;
47481;SDS011;33219;47.410;9.730;2022-12-13T08:10:12;24.40;;;12.53;;
47481;SDS011;33219;47.410;9.730;2022-12-13T08:12:45;26.37;;;13.60;;
47481;SDS011;33219;47.410;9.730;2022-12-13T08:15:20;24.23;;;12.57;;
47481;SDS011;33219;47.410;9.730;2022-12-13T08:17:54;18.43;;;11.33;;
47481;SDS011;33219;47.410;9.730;2022-12-13T08:20:30;22.90;;;11.90;;
47481;SDS011;33219;47.410;9.730;2022-12-13T08:23:04;18.37;;;10.30;;
47481;SDS011;33219;47.410;9.730;2022-12-13T08:25:37;20.10;;;10.60;;
47481;SDS011;33219;47.410;9.730;2022-12-13T08:28:09;15.35;;;8.53;;
47481;SDS011;33219;47.410;9.730;2022-12-13T08:30:46;17.30;;;9.67;;
47481;SDS011;33219;47.410;9.730;2022-12-13T08:39:10;15.43;;;8.67;;
47481;SDS011;33219;47.410;9.730;2022-12-13T08:41:56;18.50;;;8.77;;
47481;SDS011;33219;47.410;9.730;2022-12-13T08:44:50;21.47;;;10.40;;
47481;SDS011;33219;47.410;9.730;2022-12-13T08:47:22;16.87;;;9.43;;
47481;SDS011;33219;47.410;9.730;2022-12-13T08:50:27;14.03;;;8.37;;
47481;SDS011;33219;47.410;9.730;2022-12-13T08:56:52;13.87;;;8.77;;
47481;SDS011;33219;47.410;9.730;2022-12-13T09:00:10;15.20;;;8.25;;
47481;SDS011;33219;47.410;9.730;2022-12-13T09:06:18;15.13;;;8.23;;
47481;SDS011;33219;47.410;9.730;2022-12-13T09:08:51;16.07;;;8.50;;
47481;SDS011;33219;47.410;9.730;2022-12-13T09:11:25;20.23;;;10.03;;
47481;SDS011;33219;47.410;9.730;2022-12-13T09:13:59;17.70;;;10.13;;
47481;SDS011;33219;47.410;9.730;2022-12-13T09:16:33;17.60;;;9.40;;
47481;SDS011;33219;47.410;9.730;2022-12-13T09:19:07;18.37;;;9.87;;
47481;SDS011;33219;47.410;9.730;2022-12-13T09:21:39;15.97;;;10.00;;
47481;SDS011;33219;47.410;9.730;2022-12-13T09:24:11;15.38;;;7.80;;
47481;SDS011;33219;47.410;9.730;2022-12-13T09:26:41;15.77;;;8.93;;
47481;SDS011;33219;47.410;9.730;2022-12-13T09:29:11;13.20;;;7.83;;
47481;SDS011;33219;47.410;9.730;2022-12-13T09:31:42;14.90;;;7.97;;
47481;SDS011;33219;47.410;9.730;2022-12-13T09:34:15;15.60;;;9.93;;
47481;SDS011;33219;47.410;9.730;2022-12-13T09:36:43;14.00;;;7.10;;
47481;SDS011;33219;47.410;9.730;2022-12-13T09:39:18;14.13;;;7.43;;
47481;SDS011;33219;47.410;9.730;2022-12-13T09:41:50;11.55;;;7.62;;
47481;SDS011;33219;47.410;9.730;2022-12-13T09:44:42;12.30;;;7.57;;
47481;SDS011;33219;47.410;9.730;2022-12-13T09:47:13;10.73;;;6.17;;
47481;SDS011;33219;47.410;9.730;2022-12-13T09:49:46;12.53;;;7.47;;
47481;SDS011;33219;47.410;9.730;2022-12-13T09:52:22;10.00;;;5.93;;
47481;SDS011;33219;47.410;9.730;2022-12-13T09:54:54;10.90;;;6.47;;
47481;SDS011;33219;47.410;9.730;2022-12-13T09:57:28;12.27;;;6.43;;
47481;SDS011;33219;47.410;9.730;2022-12-13T10:00:04;10.72;;;6.90;;
47481;SDS011;33219;47.410;9.730;2022-12-13T10:02:45;10.97;;;7.40;;
47481;SDS011;33219;47.410;9.730;2022-12-13T10:05:26;10.07;;;6.10;;
47481;SDS011;33219;47.410;9.730;2022-12-13T10:08:04;10.50;;;5.97;;
47481;SDS011;33219;47.410;9.730;2022-12-13T10:10:38;11.63;;;6.40;;
47481;SDS011;33219;47.410;9.730;2022-12-13T10:18:39;9.37;;;6.50;;
47481;SDS011;33219;47.410;9.730;2022-12-13T10:21:17;10.07;;;5.97;;
47481;SDS011;33219;47.410;9.730;2022-12-13T10:24:06;10.37;;;6.43;;
47481;SDS011;33219;47.410;9.730;2022-12-13T10:26:44;12.60;;;5.90;;
47481;SDS011;33219;47.410;9.730;2022-12-13T10:29:17;9.95;;;6.35;;
47481;SDS011;33219;47.410;9.730;2022-12-13T10:31:51;10.07;;;6.20;;
47481;SDS011;33219;47.410;9.730;2022-12-13T10:34:26;10.87;;;6.40;;
47481;SDS011;33219;47.410;9.730;2022-12-13T10:37:00;9.87;;;6.40;;
47481;SDS011;33219;47.410;9.730;2022-12-13T10:39:40;11.60;;;7.33;;
47481;SDS011;33219;47.410;9.730;2022-12-13T10:42:16;11.53;;;7.33;;
47481;SDS011;33219;47.410;9.730;2022-12-13T10:45:12;15.97;;;9.93;;
47481;SDS011;33219;47.410;9.730;2022-12-13T10:47:52;9.73;;;5.20;;
47481;SDS011;33219;47.410;9.730;2022-12-13T10:50:27;9.60;;;6.80;;
47481;SDS011;33219;47.410;9.730;2022-12-13T10:58:19;10.07;;;6.57;;
47481;SDS011;33219;47.410;9.730;2022-12-13T11:00:48;12.17;;;7.23;;
47481;SDS011;33219;47.410;9.730;2022-12-13T11:03:29;14.70;;;8.10;;
47481;SDS011;33219;47.410;9.730;2022-12-13T11:06:06;15.30;;;7.57;;
47481;SDS011;33219;47.410;9.730;2022-12-13T11:08:43;11.43;;;6.60;;
47481;SDS011;33219;47.410;9.730;2022-12-13T11:11:12;12.73;;;7.60;;
47481;SDS011;33219;47.410;9.730;2022-12-13T11:13:43;11.40;;;6.40;;
47481;SDS011;33219;47.410;9.730;2022-12-13T11:16:34;12.53;;;6.60;;
47481;SDS011;33219;47.410;9.730;2022-12-13T11:19:06;13.23;;;7.17;;
47481;SDS011;33219;47.410;9.730;2022-12-13T11:21:35;10.83;;;6.87;;
47481;SDS011;33219;47.410;9.730;2022-12-13T11:24:05;9.87;;;7.13;;
47481;SDS011;33219;47.410;9.730;2022-12-13T11:26:36;11.10;;;7.27;;
47481;SDS011;33219;47.410;9.730;2022-12-13T11:37:09;12.23;;;6.83;;
47481;SDS011;33219;47.410;9.730;2022-12-13T11:39:44;9.77;;;6.13;;
47481;SDS011;33219;47.410;9.730;2022-12-13T11:42:30;12.43;;;7.10;;
47481;SDS011;33219;47.410;9.730;2022-12-13T11:45:19;11.53;;;6.67;;
47481;SDS011;33219;47.410;9.730;2022-12-13T11:48:17;15.67;;;7.07;;
47481;SDS011;33219;47.410;9.730;2022-12-13T11:50:50;13.33;;;7.10;;
47481;SDS011;33219;47.410;9.730;2022-12-13T11:56:10;11.67;;;6.60;;
47481;SDS011;33219;47.410;9.730;2022-12-13T12:01:29;11.77;;;6.30;;
47481;SDS011;33219;47.410;9.730;2022-12-13T12:04:01;12.58;;;7.05;;
47481;SDS011;33219;47.410;9.730;2022-12-13T12:06:31;14.27;;;7.10;;
47481;SDS011;33219;47.410;9.730;2022-12-13T12:09:04;13.10;;;6.53;;
47481;SDS011;33219;47.410;9.730;2022-12-13T12:14:35;9.85;;;6.70;;
47481;SDS011;33219;47.410;9.730;2022-12-13T12:17:12;12.33;;;6.50;;
47481;SDS011;33219;47.410;9.730;2022-12-13T12:19:53;13.03;;;6.93;;
47481;SDS011;33219;47.410;9.730;2022-12-13T12:22:36;10.73;;;6.63;;
47481;SDS011;33219;47.410;9.730;2022-12-13T12:25:54;12.50;;;6.93;;
47481;SDS011;33219;47.410;9.730;2022-12-13T12:37:27;7.43;;;3.87;;
47481;SDS011;33219;47.410;9.730;2022-12-13T12:54:05;11.77;;;6.53;;
47481;SDS011;33219;47.410;9.730;2022-12-13T13:04:51;13.07;;;6.83;;
47481;SDS011;33219;47.410;9.730;2022-12-13T13:07:24;19.53;;;8.70;;
47481;SDS011;33219;47.410;9.730;2022-12-13T13:09:56;14.23;;;7.90;;
47481;SDS011;33219;47.410;9.730;2022-12-13T13:12:26;24.17;;;10.40;;
47481;SDS011;33219;47.410;9.730;2022-12-13T13:15:02;15.80;;;8.43;;
47481;SDS011;33219;47.410;9.730;2022-12-13T13:20:16;74.50;;;23.17;;
47481;SDS011;33219;47.410;9.730;2022-12-13T13:22:46;13.10;;;7.40;;
47481;SDS011;33219;47.410;9.730;2022-12-13T13:25:28;7.65;;;5.33;;
47481;SDS011;33219;47.410;9.730;2022-12-13T13:28:13;15.50;;;8.03;;
47481;SDS011;33219;47.410;9.730;2022-12-13T13:36:43;14.60;;;9.03;;
47481;SDS011;33219;47.410;9.730;2022-12-13T13:38:57;16.43;;;7.90;;
47481;SDS011;33219;47.410;9.730;2022-12-13T13:41:37;21.80;;;10.53;;
47481;SDS011;33219;47.410;9.730;2022-12-13T13:47:14;18.43;;;9.33;;
47481;SDS011;33219;47.410;9.730;2022-12-13T13:50:02;31.47;;;11.17;;
47481;SDS011;33219;47.410;9.730;2022-12-13T13:55:14;24.43;;;10.47;;
47481;SDS011;33219;47.410;9.730;2022-12-13T14:00:38;22.60;;;12.23;;
47481;SDS011;33219;47.410;9.730;2022-12-13T14:15:22;15.90;;;9.77;;
47481;SDS011;33219;47.410;9.730;2022-12-13T14:25:48;18.80;;;9.93;;
47481;SDS011;33219;47.410;9.730;2022-12-13T14:28:28;18.20;;;10.57;;
47481;SDS011;33219;47.410;9.730;2022-12-13T14:33:23;17.20;;;10.37;;
47481;SDS011;33219;47.410;9.730;2022-12-13T14:35:59;14.87;;;9.47;;
47481;SDS011;33219;47.410;9.730;2022-12-13T14:38:27;17.60;;;11.27;;
47481;SDS011;33219;47.410;9.730;2022-12-13T14:40:58;14.37;;;9.33;;
47481;SDS011;33219;47.410;9.730;2022-12-13T14:43:27;14.47;;;9.37;;
47481;SDS011;33219;47.410;9.730;2022-12-13T14:45:57;18.40;;;10.37;;
47481;SDS011;33219;47.410;9.730;2022-12-13T14:48:27;17.00;;;9.53;;
47481;SDS011;33219;47.410;9.730;2022-12-13T14:50:57;14.90;;;9.43;;
47481;SDS011;33219;47.410;9.730;2022-12-13T14:53:33;16.87;;;9.60;;
47481;SDS011;33219;47.410;9.730;2022-12-13T14:56:02;18.80;;;9.53;;
47481;SDS011;33219;47.410;9.730;2022-12-13T14:58:31;15.70;;;9.20;;
47481;SDS011;33219;47.410;9.730;2022-12-13T15:01:00;24.73;;;11.00;;
47481;SDS011;33219;47.410;9.730;2022-12-13T15:03:45;16.50;;;9.60;;
47481;SDS011;33219;47.410;9.730;2022-12-13T15:06:12;18.83;;;11.13;;
47481;SDS011;33219;47.410;9.730;2022-12-13T15:08:40;16.73;;;9.63;;
47481;SDS011;33219;47.410;9.730;2022-12-13T15:11:09;15.07;;;9.47;;
47481;SDS011;33219;47.410;9.730;2022-12-13T15:16:19;61.83;;;23.97;;
47481;SDS011;33219;47.410;9.730;2022-12-13T15:19:16;21.23;;;11.90;;
47481;SDS011;33219;47.410;9.730;2022-12-13T15:24:29;15.77;;;10.20;;
47481;SDS011;33219;47.410;9.730;2022-12-13T15:26:58;19.03;;;10.13;;
47481;SDS011;33219;47.410;9.730;2022-12-13T15:29:28;19.47;;;9.67;;
47481;SDS011;33219;47.410;9.730;2022-12-13T15:31:57;20.63;;;10.43;;
47481;SDS011;33219;47.410;9.730;2022-12-13T15:39:51;40.10;;;17.27;;
47481;SDS011;33219;47.410;9.730;2022-12-13T15:42:31;18.97;;;10.47;;
47481;SDS011;33219;47.410;9.730;2022-12-13T15:45:03;18.10;;;10.03;;
47481;SDS011;33219;47.410;9.730;2022-12-13T15:47:31;21.13;;;11.00;;
47481;SDS011;33219;47.410;9.730;2022-12-13T15:50:27;19.20;;;10.57;;
47481;SDS011;33219;47.410;9.730;2022-12-13T15:52:37;17.63;;;11.30;;
47481;SDS011;33219;47.410;9.730;2022-12-13T15:57:55;23.10;;;12.70;;
47481;SDS011;33219;47.410;9.730;2022-12-13T16:00:27;19.53;;;10.87;;
47481;SDS011;33219;47.410;9.730;2022-12-13T16:03:17;17.90;;;11.27;;
47481;SDS011;33219;47.410;9.730;2022-12-13T16:08:17;20.80;;;10.93;;
47481;SDS011;33219;47.410;9.730;2022-12-13T16:10:48;22.23;;;11.30;;
47481;SDS011;33219;47.410;9.730;2022-12-13T16:13:28;18.67;;;12.00;;
47481;SDS011;33219;47.410;9.730;2022-12-13T16:16:17;16.73;;;10.67;;
47481;SDS011;33219;47.410;9.730;2022-12-13T16:18:53;16.40;;;10.67;;
47481;SDS011;33219;47.410;9.730;2022-12-13T16:21:22;16.43;;;10.57;;
47481;SDS011;33219;47.410;9.730;2022-12-13T16:23:51;18.47;;;10.67;;
47481;SDS011;33219;47.410;9.730;2022-12-13T16:26:25;16.27;;;10.73;;
47481;SDS011;33219;47.410;9.730;2022-12-13T16:28:54;17.50;;;10.87;;
47481;SDS011;33219;47.410;9.730;2022-12-13T16:31:26;20.47;;;12.67;;
47481;SDS011;33219;47.410;9.730;2022-12-13T16:33:56;20.67;;;11.83;;
47481;SDS011;33219;47.410;9.730;2022-12-13T16:36:24;16.87;;;11.47;;
47481;SDS011;33219;47.410;9.730;2022-12-13T16:38:51;18.20;;;10.87;;
47481;SDS011;33219;47.410;9.730;2022-12-13T16:41:19;19.60;;;11.93;;
47481;SDS011;33219;47.410;9.730;2022-12-13T16:43:57;20.30;;;11.83;;
47481;SDS011;33219;47.410;9.730;2022-12-13T16:46:26;18.57;;;11.00;;
47481;SDS011;33219;47.410;9.730;2022-12-13T16:48:55;18.80;;;11.30;;
47481;SDS011;33219;47.410;9.730;2022-12-13T16:51:22;22.13;;;12.97;;
47481;SDS011;33219;47.410;9.730;2022-12-13T16:53:50;25.60;;;14.83;;
47481;SDS011;33219;47.410;9.730;2022-12-13T16:56:21;21.00;;;13.78;;
47481;SDS011;33219;47.410;9.730;2022-12-13T16:58:49;22.20;;;13.73;;
47481;SDS011;33219;47.410;9.730;2022-12-13T17:01:18;22.07;;;13.67;;
47481;SDS011;33219;47.410;9.730;2022-12-13T17:03:46;22.00;;;14.20;;
47481;SDS011;33219;47.410;9.730;2022-12-13T17:06:15;23.30;;;13.63;;
47481;SDS011;33219;47.410;9.730;2022-12-13T17:08:45;22.70;;;13.10;;
47481;SDS011;33219;47.410;9.730;2022-12-13T17:11:12;23.87;;;14.93;;
47481;SDS011;33219;47.410;9.730;2022-12-13T17:13:40;23.97;;;15.20;;
47481;SDS011;33219;47.410;9.730;2022-12-13T17:16:09;24.97;;;14.27;;
47481;SDS011;33219;47.410;9.730;2022-12-13T17:18:37;26.37;;;14.43;;
47481;SDS011;33219;47.410;9.730;2022-12-13T17:21:07;22.20;;;14.13;;
47481;SDS011;33219;47.410;9.730;2022-12-13T17:23:35;25.53;;;13.40;;
47481;SDS011;33219;47.410;9.730;2022-12-13T17:26:04;26.47;;;13.73;;
47481;SDS011;33219;47.410;9.730;2022-12-13T17:28:38;24.67;;;14.50;;
47481;SDS011;33219;47.410;9.730;2022-12-13T17:31:11;25.63;;;14.97;;
47481;SDS011;33219;47.410;9.730;2022-12-13T17:33:38;18.85;;;11.40;;
47481;SDS011;33219;47.410;9.730;2022-12-13T17:36:06;26.87;;;14.70;;
47481;SDS011;33219;47.410;9.730;2022-12-13T17:38:35;23.97;;;13.07;;